Terminal Aerodrome Forecast
Issued by NWS Portland, OR

Home | Current Version | Previous Version | Text Only | Print | Product List | Glossary On
Versions: 1 2 3 4 5 6 7 8 9 10 11 12 13 14 15 16 17 18
000
FTUS46 KPQR 261736
TAFAST
TAF
KAST 261736Z 2618/2718 33009KT P6SM OVC021
     FM262200 33013G20KT P6SM OVC025
     FM270300 32011KT P6SM OVC022
     FM270700 31008KT P6SM OVC015=

USA.gov is the U.S. government's official web portal to all federal, state and local government web resources and services.